Time;durP1;ratioP1;P1;durP2;ratioP2;P2;SDS_P1;SDS_P2;PMS_P1;PMS_P2;Temp;Humidity;BMP_temperature;BMP_pressure;BME280_temperature;BME280_humidity;BME280_pressure;Samples;Min_cycle;Max_cycle;Signal;HPM_P1;HPM_P2
2022/05/04 00:02:17;;;;;;;150.73;48.23;;;;;;;9.83;100.00;100213.03;5043630;28;20183;-53
2022/05/04 00:04:42;;;;;;;140.90;46.43;;;;;;;9.82;100.00;100219.06;5051527;28;20198;-50
2022/05/04 00:07:08;;;;;;;134.93;43.53;;;;;;;9.79;100.00;100217.38;5043691;28;20318;-51
2022/05/04 00:09:33;;;;;;;135.03;43.83;;;;;;;9.77;100.00;100212.19;5045423;28;20240;-52
2022/05/04 00:11:58;;;;;;;141.03;43.87;;;;;;;9.75;100.00;100219.13;5048214;28;20259;-51
2022/05/04 00:14:25;;;;;;;137.07;42.33;;;;;;;9.71;100.00;100220.00;5046749;28;20265;-53
2022/05/04 00:16:52;;;;;;;134.37;42.57;;;;;;;9.67;100.00;100207.97;5045237;28;20213;-53
2022/05/04 00:19:17;;;;;;;147.17;45.50;;;;;;;9.62;100.00;100207.13;5049041;28;20661;-53
2022/05/04 00:21:42;;;;;;;156.13;44.03;;;;;;;9.59;100.00;100212.34;5051800;28;20188;-51
2022/05/04 00:24:08;;;;;;;161.70;46.77;;;;;;;9.55;100.00;100202.88;5053086;28;20207;-51
2022/05/04 00:26:33;;;;;;;152.50;46.73;;;;;;;9.52;100.00;100202.88;5046063;28;20210;-53
2022/05/04 00:28:59;;;;;;;156.23;49.43;;;;;;;9.45;100.00;100208.06;5046990;28;20195;-52
2022/05/04 00:31:24;;;;;;;153.17;47.17;;;;;;;9.44;100.00;100202.94;5046141;28;20194;-51
2022/05/04 00:33:49;;;;;;;165.90;50.33;;;;;;;9.44;100.00;100210.69;5048033;28;20262;-51
2022/05/04 00:36:15;;;;;;;153.20;50.00;;;;;;;9.43;100.00;100208.97;5047863;28;20569;-52
2022/05/04 00:38:40;;;;;;;137.97;44.33;;;;;;;9.41;100.00;100209.00;5045257;28;20564;-52
2022/05/04 00:41:05;;;;;;;158.27;48.70;;;;;;;9.40;100.00;100211.56;5045674;28;20227;-51
2022/05/04 00:43:31;;;;;;;135.67;44.77;;;;;;;9.39;100.00;100208.13;5047926;28;20663;-52
2022/05/04 00:45:56;;;;;;;141.37;44.97;;;;;;;9.37;100.00;100204.69;5049123;28;20243;-51
2022/05/04 00:48:22;;;;;;;164.47;53.23;;;;;;;9.35;100.00;100211.59;5042107;28;20218;-52
2022/05/04 00:50:49;;;;;;;159.63;49.33;;;;;;;9.30;100.00;100205.63;5044261;28;20186;-51
2022/05/04 00:53:19;;;;;;;145.03;44.13;;;;;;;9.26;100.00;100209.06;5049081;28;20255;-52
2022/05/04 00:55:46;;;;;;;148.83;45.63;;;;;;;9.22;100.00;100213.41;5050315;28;20268;-51
2022/05/04 01:00:58;;;;;;;143.63;44.57;;;;;;;9.11;100.00;100208.28;5044642;28;20298;-52
2022/05/04 01:03:26;;;;;;;159.10;44.27;;;;;;;9.07;100.00;100208.28;5037166;28;20315;-52
2022/05/04 01:05:51;;;;;;;148.07;44.47;;;;;;;9.03;100.00;100207.44;5047718;28;20195;-52
2022/05/04 01:08:17;;;;;;;154.33;42.73;;;;;;;9.03;100.00;100211.75;5041764;28;20221;-52
2022/05/04 01:10:42;;;;;;;153.50;42.53;;;;;;;9.02;100.00;100210.03;5048346;28;20193;-52
2022/05/04 01:13:08;;;;;;;161.40;42.80;;;;;;;8.98;100.00;100222.94;5046524;28;20221;-52
2022/05/04 01:15:34;;;;;;;142.93;42.87;;;;;;;8.95;100.00;100215.19;5048022;28;20890;-52
2022/05/04 01:17:59;;;;;;;139.27;45.00;;;;;;;8.92;100.00;100220.41;5045041;28;20238;-52
2022/05/04 01:20:24;;;;;;;165.53;47.37;;;;;;;8.82;100.00;100219.56;5047767;28;20241;-53
2022/05/04 01:22:50;;;;;;;176.40;44.73;;;;;;;8.77;100.00;100218.69;5043717;28;20198;-52
2022/05/04 01:25:15;;;;;;;166.87;43.77;;;;;;;8.74;100.00;100223.88;5048449;28;21121;-51
2022/05/04 01:27:41;;;;;;;168.67;43.53;;;;;;;8.72;100.00;100220.44;5045602;28;20206;-52
2022/05/04 01:30:07;;;;;;;167.40;46.37;;;;;;;8.72;100.00;100217.00;5046734;28;20199;-51
2022/05/04 01:32:33;;;;;;;168.57;47.77;;;;;;;8.72;100.00;100220.44;5046632;28;20191;-52
2022/05/04 01:34:58;;;;;;;173.03;47.60;;;;;;;8.72;100.00;100214.41;5047756;28;20288;-52
2022/05/04 01:37:24;;;;;;;167.13;44.63;;;;;;;8.71;100.00;100210.97;5044695;28;20214;-52
2022/05/04 01:39:49;;;;;;;151.03;43.03;;;;;;;8.71;100.00;100217.84;5045783;28;20210;-51
2022/05/04 01:42:16;;;;;;;154.47;46.20;;;;;;;8.72;100.00;100210.09;5047806;28;20200;-52
2022/05/04 01:44:43;;;;;;;144.33;43.90;;;;;;;8.75;100.00;100217.84;5045987;28;20236;-52
2022/05/04 01:47:09;;;;;;;162.87;46.23;;;;;;;8.77;100.00;100213.53;5043810;28;20265;-52
2022/05/04 01:49:35;;;;;;;141.63;42.27;;;;;;;8.81;100.00;100211.81;5046086;28;20215;-51
2022/05/04 01:52:01;;;;;;;128.57;39.77;;;;;;;8.82;100.00;100214.41;5037282;28;20226;-51
2022/05/04 01:54:26;;;;;;;132.77;42.07;;;;;;;8.83;100.00;100204.91;5036727;28;20183;-54
2022/05/04 01:56:52;;;;;;;136.07;42.47;;;;;;;8.83;100.00;100216.13;5041841;28;20586;-52
2022/05/04 01:59:17;;;;;;;129.77;43.17;;;;;;;8.85;100.00;100213.53;5042805;28;20231;-53
2022/05/04 02:01:43;;;;;;;122.53;45.10;;;;;;;8.87;100.00;100211.78;5045729;28;20264;-52
2022/05/04 02:04:08;;;;;;;123.20;43.03;;;;;;;8.89;100.00;100212.66;5050097;28;20194;-51
2022/05/04 02:06:36;;;;;;;115.67;41.07;;;;;;;8.90;100.00;100210.91;5044858;28;20213;-54
2022/05/04 02:09:02;;;;;;;106.73;39.33;;;;;;;8.89;100.00;100209.19;5045890;28;20230;-53
2022/05/04 02:11:29;;;;;;;102.17;38.60;;;;;;;8.87;100.00;100201.47;5043801;28;20256;-52
2022/05/04 02:13:54;;;;;;;117.67;40.03;;;;;;;8.83;100.00;100203.22;5046840;28;20197;-51
2022/05/04 02:16:19;;;;;;;112.50;38.77;;;;;;;8.79;100.00;100201.50;5043395;28;20576;-52
2022/05/04 02:18:45;;;;;;;137.57;44.50;;;;;;;8.74;100.00;100204.97;5045820;28;20173;-52
2022/05/04 02:21:10;;;;;;;124.07;45.10;;;;;;;8.61;100.00;100204.13;5045562;28;20238;-52
2022/05/04 02:23:36;;;;;;;156.03;48.27;;;;;;;8.49;100.00;100208.44;5047668;28;20235;-52
2022/05/04 02:26:02;;;;;;;154.20;44.97;;;;;;;8.41;100.00;100204.13;5047179;28;20201;-52
2022/05/04 02:28:27;;;;;;;131.57;45.80;;;;;;;8.36;100.00;100204.97;5044044;28;20229;-52
2022/05/04 02:30:53;;;;;;;139.23;42.93;;;;;;;8.36;100.00;100204.13;5044508;28;20206;-52
2022/05/04 02:33:18;;;;;;;143.07;41.00;;;;;;;8.33;100.00;100194.66;5045292;28;20185;-52
2022/05/04 02:38:27;;;;;;;155.90;43.03;;;;;;;8.31;100.00;100203.28;5050906;28;20264;-52
2022/05/04 02:40:53;;;;;;;143.10;43.30;;;;;;;8.30;100.00;100204.13;5047468;28;20693;-51
2022/05/04 02:43:18;;;;;;;145.40;40.13;;;;;;;8.30;100.00;100206.72;5045881;28;20201;-52
2022/05/04 02:45:44;;;;;;;145.80;44.17;;;;;;;8.27;100.00;100217.91;5046185;28;20194;-53
2022/05/04 02:48:09;;;;;;;137.47;42.53;;;;;;;8.19;100.00;100211.88;5043023;28;20740;-52
2022/05/04 02:50:36;;;;;;;138.00;44.93;;;;;;;8.11;100.00;100219.59;5048077;28;20560;-51
2022/05/04 02:53:02;;;;;;;140.50;43.03;;;;;;;8.05;100.00;100222.19;5048552;28;20258;-52
2022/05/04 02:55:27;;;;;;;141.07;43.43;;;;;;;8.00;100.00;100218.75;5048988;28;20559;-51
2022/05/04 02:57:52;;;;;;;131.50;40.87;;;;;;;7.96;100.00;100225.63;5042317;28;20214;-52
2022/05/04 03:00:18;;;;;;;123.83;37.37;;;;;;;7.94;100.00;100225.59;5049056;28;20236;-50
2022/05/04 03:02:44;;;;;;;113.20;37.73;;;;;;;7.95;100.00;100226.47;5050271;28;20193;-51
2022/05/04 03:05:12;;;;;;;116.60;38.23;;;;;;;7.94;100.00;100223.03;5047509;28;20209;-51
2022/05/04 03:07:37;;;;;;;117.40;38.63;;;;;;;7.97;100.00;100224.78;5048461;28;20214;-52
2022/05/04 03:10:04;;;;;;;128.30;38.47;;;;;;;8.00;100.00;100224.78;5047527;28;20189;-53
2022/05/04 03:12:29;;;;;;;102.27;37.73;;;;;;;8.02;100.00;100223.03;5049134;28;20201;-53
2022/05/04 03:14:55;;;;;;;131.07;41.50;;;;;;;8.06;100.00;100232.50;5049900;28;20255;-52
2022/05/04 03:17:21;;;;;;;119.10;40.23;;;;;;;8.12;100.00;100223.06;5044056;28;20662;-52
2022/05/04 03:19:47;;;;;;;108.40;42.07;;;;;;;8.17;100.00;100224.78;5047644;28;20225;-52
2022/05/04 03:22:13;;;;;;;102.17;38.50;;;;;;;8.25;100.00;100227.34;5045648;28;20199;-53
2022/05/04 03:24:38;;;;;;;112.97;41.50;;;;;;;8.31;100.00;100223.91;5046086;28;20193;-53
2022/05/04 03:27:04;;;;;;;110.53;44.67;;;;;;;8.35;100.00;100225.63;5047049;28;20206;-52
2022/05/04 03:29:30;;;;;;;112.33;41.33;;;;;;;8.36;100.00;100233.34;5048425;28;20202;-53
2022/05/04 03:31:55;;;;;;;118.57;44.73;;;;;;;8.36;100.00;100229.94;5044079;28;20269;-53
2022/05/04 03:34:20;;;;;;;142.03;51.33;;;;;;;8.29;100.00;100225.63;5047268;28;20818;-52
2022/05/04 03:36:46;;;;;;;118.80;47.17;;;;;;;8.21;100.00;100226.50;5050577;28;20236;-53
2022/05/04 03:39:11;;;;;;;105.10;42.90;;;;;;;8.21;100.00;100228.19;5047536;28;20212;-53
2022/05/04 03:41:38;;;;;;;103.37;40.60;;;;;;;8.24;100.00;100225.63;5044716;28;22155;-53
2022/05/04 03:44:04;;;;;;;109.83;41.73;;;;;;;8.27;100.00;100220.47;5045649;28;20189;-53
2022/05/04 03:46:41;;;;;;;108.07;42.17;;;;;;;8.28;100.00;100222.19;5044240;28;20263;-53
2022/05/04 03:49:08;;;;;;;123.43;45.33;;;;;;;8.27;100.00;100225.63;5045411;28;20191;-51
2022/05/04 03:51:33;;;;;;;105.27;43.90;;;;;;;8.26;100.00;100226.50;5045646;28;20275;-52
2022/05/04 03:53:59;;;;;;;104.50;44.50;;;;;;;8.27;100.00;100224.75;5054763;28;20277;-53
2022/05/04 03:56:24;;;;;;;103.07;43.73;;;;;;;8.29;100.00;100220.47;5038586;28;20550;-52
2022/05/04 03:58:49;;;;;;;101.43;42.33;;;;;;;8.33;100.00;100227.34;5047175;28;20673;-52
2022/05/04 04:01:15;;;;;;;95.73;41.00;;;;;;;8.39;100.00;100230.78;5046122;28;20225;-52
2022/05/04 04:03:40;;;;;;;101.60;45.93;;;;;;;8.43;100.00;100228.19;5045133;28;20195;-53
2022/05/04 04:06:06;;;;;;;91.97;42.37;;;;;;;8.46;100.00;100231.63;5046886;28;20224;-52
2022/05/04 04:08:32;;;;;;;85.83;41.27;;;;;;;8.50;100.00;100235.09;5044260;28;20206;-52
2022/05/04 04:10:58;;;;;;;95.00;40.27;;;;;;;8.53;100.00;100235.97;5045613;28;20297;-52
2022/05/04 04:13:24;;;;;;;91.93;41.87;;;;;;;8.56;100.00;100237.66;5045138;28;20196;-51
2022/05/04 04:15:51;;;;;;;95.70;43.87;;;;;;;8.59;100.00;100235.09;5044454;28;20296;-52
2022/05/04 04:18:21;;;;;;;86.13;40.67;;;;;;;8.63;100.00;100239.34;5044438;28;20220;-51
2022/05/04 04:23:31;;;;;;;86.77;40.80;;;;;;;8.71;100.00;100247.09;5046760;28;20627;-52
2022/05/04 04:25:57;;;;;;;84.00;40.70;;;;;;;8.74;100.00;100243.66;5048956;28;20190;-53
2022/05/04 04:28:22;;;;;;;75.40;39.43;;;;;;;8.78;100.00;100248.81;5045703;28;20613;-53
2022/05/04 04:30:48;;;;;;;69.87;37.07;;;;;;;8.88;100.00;100256.50;5047520;28;20186;-52
2022/05/04 04:33:13;;;;;;;69.17;37.97;;;;;;;8.95;100.00;100253.91;5044319;28;20186;-52
2022/05/04 04:35:39;;;;;;;73.53;39.80;;;;;;;8.96;100.00;100259.94;5045133;28;21212;-52
2022/05/04 04:38:04;;;;;;;77.37;42.13;;;;;;;8.96;100.00;100259.94;5040570;28;20212;-52
2022/05/04 04:40:30;;;;;;;86.47;42.77;;;;;;;8.95;100.00;100264.25;5043618;28;20261;-53
2022/05/04 04:42:56;;;;;;;84.70;45.40;;;;;;;8.93;100.00;100260.78;5046003;28;20572;-53
2022/05/04 04:45:21;;;;;;;82.57;41.43;;;;;;;8.95;100.00;100264.25;5042221;28;20191;-53
2022/05/04 04:47:47;;;;;;;72.70;39.97;;;;;;;9.01;100.00;100263.34;5042730;28;20236;-52
2022/05/04 04:50:13;;;;;;;78.40;39.73;;;;;;;9.08;100.00;100264.19;5045536;28;20273;-52
2022/05/04 04:52:39;;;;;;;77.00;40.13;;;;;;;9.13;100.00;100262.47;5041146;28;20196;-52
2022/05/04 04:55:05;;;;;;;72.10;39.93;;;;;;;9.18;100.00;100263.31;5043344;28;20582;-52
2022/05/04 04:57:33;;;;;;;65.63;37.50;;;;;;;9.24;100.00;100272.75;5045475;28;20213;-52
2022/05/04 04:59:59;;;;;;;69.73;37.70;;;;;;;9.30;100.00;100273.59;5042611;28;20651;-52
2022/05/04 05:02:25;;;;;;;63.63;36.27;;;;;;;9.36;100.00;100277.88;5040448;28;20195;-52
2022/05/04 05:04:50;;;;;;;70.73;39.17;;;;;;;9.39;100.00;100266.66;5044169;28;20189;-53
2022/05/04 05:07:15;;;;;;;73.57;40.63;;;;;;;9.42;100.00;100269.25;5043182;28;20277;-52
2022/05/04 05:09:41;;;;;;;71.70;39.43;;;;;;;9.46;100.00;100274.38;5044685;28;20188;-52
2022/05/04 05:12:07;;;;;;;67.50;37.40;;;;;;;9.52;100.00;100281.28;5044302;28;20191;-53
2022/05/04 05:17:17;;;;;;;76.17;39.70;;;;;;;9.54;100.00;100276.09;5040866;28;20233;-52
2022/05/04 05:19:43;;;;;;;70.57;38.87;;;;;;;9.52;100.00;100280.41;5039533;28;20207;-53
2022/05/04 05:22:09;;;;;;;71.07;39.37;;;;;;;9.52;100.00;100275.22;5032933;28;20195;-52
2022/05/04 05:24:46;;;;;;;71.17;38.20;;;;;;;9.56;100.00;100279.53;5044885;28;20216;-53
2022/05/04 05:27:14;;;;;;;75.30;38.47;;;;;;;9.59;100.00;100282.09;5165965;22;20318;-52
2022/05/04 05:29:40;;;;;;;75.10;38.77;;;;;;;9.58;100.00;100278.63;5045835;28;20191;-52
2022/05/04 05:32:05;;;;;;;67.70;36.57;;;;;;;9.62;100.00;100276.88;5047966;28;20205;-52
2022/05/04 05:34:33;;;;;;;71.77;38.83;;;;;;;9.67;100.00;100282.91;5048379;28;20254;-52
2022/05/04 05:36:59;;;;;;;71.33;41.10;;;;;;;9.78;100.00;100288.00;5037697;28;20249;-53
2022/05/04 05:39:24;;;;;;;69.83;39.00;;;;;;;9.91;100.00;100283.59;5037543;28;20265;-53
2022/05/04 05:41:50;;;;;;;71.73;38.93;;;;;;;10.12;100.00;100290.41;5034465;28;20286;-52
2022/05/04 05:44:15;;;;;;;63.40;36.40;;;;;;;10.51;100.00;100293.56;5035337;28;20233;-52
2022/05/04 05:46:40;;;;;;;61.13;37.93;;;;;;;11.45;100.00;100283.06;5036267;28;20284;-51
2022/05/04 05:49:06;;;;;;;63.73;40.53;;;;;;;12.72;100.00;100285.50;5042214;28;20202;-51
2022/05/04 05:51:31;;;;;;;59.53;36.87;;;;;;;13.60;100.00;100278.63;5045924;28;20215;-51
2022/05/04 05:53:56;;;;;;;47.87;32.90;;;;;;;14.31;100.00;100287.41;5047451;28;20585;-51
2022/05/04 05:56:22;;;;;;;49.40;31.13;;;;;;;14.84;100.00;100286.13;5040650;28;20271;-51
2022/05/04 05:58:47;;;;;;;37.93;26.50;;;;;;;15.36;100.00;100288.16;5048903;28;20658;-52
2022/05/04 06:01:12;;;;;;;45.77;29.80;;;;;;;15.65;100.00;100289.06;5042991;28;20247;-51
2022/05/04 06:03:38;;;;;;;32.43;24.00;;;;;;;16.15;100.00;100288.44;5034114;28;20195;-51
2022/05/04 06:06:03;;;;;;;42.33;26.23;;;;;;;16.45;100.00;100294.38;5039965;28;20186;-51
2022/05/04 06:08:28;;;;;;;26.93;21.53;;;;;;;16.88;100.00;100292.06;5044745;28;20941;-51
2022/05/04 06:10:54;;;;;;;24.83;20.10;;;;;;;17.41;100.00;100290.19;5039004;28;20542;-50
2022/05/04 06:13:19;;;;;;;25.53;18.63;;;;;;;17.77;100.00;100287.09;5045907;28;20210;-51
2022/05/04 06:15:45;;;;;;;21.27;16.93;;;;;;;18.06;100.00;100287.75;5045916;28;20233;-50
2022/05/04 06:18:12;;;;;;;22.43;17.07;;;;;;;18.38;100.00;100290.81;5045869;28;20205;-50
2022/05/04 06:20:37;;;;;;;20.20;16.27;;;;;;;18.44;100.00;100292.31;5040534;28;20225;-51
2022/05/04 06:23:02;;;;;;;18.77;15.67;;;;;;;18.70;100.00;100288.59;5045047;28;20204;-49
2022/05/04 06:25:28;;;;;;;21.13;18.30;;;;;;;18.65;100.00;100292.34;5045705;28;20208;-51
2022/05/04 06:27:53;;;;;;;19.70;17.67;;;;;;;18.79;100.00;100286.50;5033558;28;20225;-51
2022/05/04 06:36:04;;;;;;;17.83;15.97;;;;;;;19.47;100.00;100289.59;5042488;28;20605;-50
2022/05/04 06:38:29;;;;;;;17.93;16.07;;;;;;;19.88;100.00;100283.38;5035992;28;20214;-51
2022/05/04 06:40:54;;;;;;;17.60;15.80;;;;;;;20.31;100.00;100277.78;5043065;28;20202;-50
2022/05/04 06:43:20;;;;;;;17.33;15.53;;;;;;;20.59;100.00;100281.66;5051170;28;20264;-51
2022/05/04 06:45:46;;;;;;;17.97;16.30;;;;;;;20.90;100.00;100284.50;5053034;28;20182;-51
2022/05/04 06:48:11;;;;;;;17.27;15.53;;;;;;;21.19;100.00;100282.09;5047588;28;20320;-49
2022/05/04 06:50:37;;;;;;;16.37;14.77;;;;;;;21.48;100.00;100293.69;5043472;28;20273;-51
2022/05/04 06:53:07;;;;;;;16.90;15.20;;;;;;;21.76;100.00;100286.94;5046242;28;20195;-51
2022/05/04 06:55:34;;;;;;;17.73;15.93;;;;;;;22.04;100.00;100288.88;5050974;28;20193;-49
2022/05/04 06:57:59;;;;;;;19.70;17.63;;;;;;;22.20;100.00;100298.53;5043851;28;20573;-50
2022/05/04 07:00:25;;;;;;;20.53;18.43;;;;;;;22.34;100.00;100295.94;5044265;28;20218;-51
2022/05/04 07:02:50;;;;;;;24.80;21.13;;;;;;;22.37;100.00;100302.81;5041034;28;20229;-50
2022/05/04 07:05:16;;;;;;;23.57;21.03;;;;;;;22.39;100.00;100304.41;5041698;28;20193;-50
2022/05/04 07:24:45;;;;;;;17.17;15.70;;;;;;;23.09;100.00;100324.06;5131286;27;20596;-49
2022/05/04 07:27:11;;;;;;;19.03;17.33;;;;;;;23.04;100.00;100323.53;5121380;28;20190;-57
2022/05/04 07:29:36;;;;;;;19.17;17.50;;;;;;;23.08;100.00;100325.00;5121028;27;20267;-51
2022/05/04 07:32:02;;;;;;;18.67;16.83;;;;;;;23.00;100.00;100319.38;5120123;27;20272;-51
2022/05/04 07:34:28;;;;;;;20.80;18.73;;;;;;;22.58;100.00;100324.47;5114990;27;20257;-51
2022/05/04 07:36:53;;;;;;;20.17;18.40;;;;;;;22.11;100.00;100321.00;5119032;27;20281;-56
2022/05/04 07:42:21;;;;;;;21.00;19.03;;;;;;;21.48;100.00;100320.03;5114543;28;22036;-49
2022/05/04 07:45:08;;;;;;;40.33;24.67;;;;;;;20.86;100.00;100320.63;5111503;27;20222;-52
2022/05/04 07:47:35;;;;;;;24.20;22.00;;;;;;;20.47;100.00;100313.81;5110515;27;20188;-51
2022/05/04 07:50:06;;;;;;;26.93;24.47;;;;;;;20.67;100.00;100315.44;5117224;27;20192;-52
2022/05/04 07:52:32;;;;;;;30.07;27.20;;;;;;;20.74;100.00;100315.97;5116666;28;20219;-53
2022/05/04 07:54:57;;;;;;;26.37;23.83;;;;;;;20.70;100.00;100313.50;5113517;27;20208;-57
2022/05/04 07:57:22;;;;;;;27.87;25.43;;;;;;;20.61;100.00;100321.88;5115757;27;20650;-50
2022/05/04 08:05:22;;;;;;;24.37;22.03;;;;;;;20.48;100.00;100324.25;5115602;27;20637;-52
2022/05/04 08:07:48;;;;;;;26.40;24.03;;;;;;;20.45;100.00;100328.81;5120921;27;20217;-52
2022/05/04 08:10:14;;;;;;;25.60;23.30;;;;;;;20.54;100.00;100326.59;5119579;27;20191;-51
2022/05/04 08:12:47;;;;;;;25.70;23.40;;;;;;;20.59;100.00;100322.84;5117109;27;20208;-50
2022/05/04 08:15:14;;;;;;;24.50;22.27;;;;;;;20.61;100.00;100324.50;5117564;27;20298;-51
2022/05/04 08:17:40;;;;;;;26.33;23.93;;;;;;;20.58;100.00;100326.41;5119132;27;20309;-52
2022/05/04 08:20:06;;;;;;;25.90;23.57;;;;;;;20.55;100.00;100340.56;5114244;27;20561;-51
2022/05/04 08:22:31;;;;;;;25.73;23.40;;;;;;;20.58;100.00;100329.03;5120825;27;20223;-51
2022/05/04 08:24:56;;;;;;;28.87;26.10;;;;;;;20.52;100.00;100331.06;5105656;28;20305;-51
2022/05/04 08:27:22;;;;;;;26.90;24.50;;;;;;;20.59;100.00;100334.25;5110684;28;20192;-51
2022/05/04 08:29:47;;;;;;;25.87;23.40;;;;;;;20.88;100.00;100334.56;5105747;28;20641;-52
2022/05/04 08:32:13;;;;;;;26.10;23.90;;;;;;;21.11;100.00;100333.38;5094896;27;20185;-51
2022/05/04 08:34:39;;;;;;;25.40;23.40;;;;;;;21.35;100.00;100330.34;5100787;27;20207;-53
2022/05/04 08:37:06;;;;;;;25.13;23.00;;;;;;;21.61;100.00;100330.78;5093397;28;20176;-52
2022/05/04 08:39:31;;;;;;;24.90;22.80;;;;;;;21.72;100.00;100331.03;5107620;28;20219;-52
2022/05/04 08:41:58;;;;;;;21.00;19.37;;;;;;;22.07;100.00;100327.38;5102925;28;20557;-51
2022/05/04 08:44:23;;;;;;;18.47;16.93;;;;;;;22.41;100.00;100335.97;5104156;28;20281;-52
2022/05/04 08:46:50;;;;;;;17.30;16.00;;;;;;;22.43;100.00;100330.66;5109078;28;20642;-52
2022/05/04 08:49:19;;;;;;;16.00;14.73;;;;;;;22.41;100.00;100320.16;5104046;27;20272;-51
2022/05/04 08:51:46;;;;;;;17.30;16.00;;;;;;;22.30;100.00;100335.75;5094074;28;20188;-51
2022/05/04 08:54:13;;;;;;;17.70;16.20;;;;;;;22.15;100.00;100332.19;5095518;27;20213;-52
2022/05/04 08:56:38;;;;;;;15.60;14.50;;;;;;;22.08;100.00;100329.06;5101713;28;20594;-51
2022/05/04 08:59:05;;;;;;;14.83;13.73;;;;;;;22.11;100.00;100328.03;5094928;28;20185;-52
2022/05/04 09:01:31;;;;;;;17.20;15.80;;;;;;;22.19;100.00;100331.94;5095860;28;20701;-52
2022/05/04 09:03:58;;;;;;;17.33;16.03;;;;;;;22.11;100.00;100328.91;5099163;27;20210;-51
2022/05/04 09:06:26;;;;;;;16.57;15.37;;;;;;;21.95;100.00;100323.63;5093841;28;20270;-48
2022/05/04 09:09:10;;;;;;;16.97;15.73;;;;;;;21.78;100.00;100327.22;5105865;28;20570;-50
2022/05/04 09:11:51;;;;;;;15.13;13.97;;;;;;;21.71;100.00;100324.06;5106200;28;20196;-50
2022/05/04 09:14:20;;;;;;;17.33;16.00;;;;;;;21.54;100.00;100317.06;5102359;28;20582;-49
2022/05/04 09:16:48;;;;;;;18.50;17.10;;;;;;;21.48;100.00;100325.28;5095685;28;20268;-49
2022/05/04 09:19:17;;;;;;;18.63;17.13;;;;;;;21.51;100.00;100322.50;5101157;28;20188;-51
2022/05/04 09:21:45;;;;;;;18.27;16.93;;;;;;;21.59;100.00;100322.91;5101100;28;20180;-50
2022/05/04 09:24:14;;;;;;;16.87;15.43;;;;;;;21.64;100.00;100320.06;5103495;28;20227;-50
2022/05/04 09:26:44;;;;;;;18.57;16.87;;;;;;;21.57;100.00;100327.41;5098778;28;20329;-50
2022/05/04 09:29:13;;;;;;;17.70;16.30;;;;;;;21.41;100.00;100323.91;5097773;28;20212;-50
2022/05/04 09:31:41;;;;;;;17.00;15.73;;;;;;;21.14;100.00;100330.59;5102433;28;20241;-50
2022/05/04 09:34:08;;;;;;;18.20;16.70;;;;;;;20.88;100.00;100329.31;5098498;27;20204;-50
2022/05/04 09:45:13;;;;;;;18.30;16.80;;;;;;;19.91;100.00;100327.88;5095132;28;20681;-49
2022/05/04 09:47:45;;;;;;;18.83;17.23;;;;;;;19.80;100.00;100322.25;5091201;28;20184;-50
2022/05/04 09:50:13;;;;;;;18.90;17.40;;;;;;;19.76;100.00;100328.56;5097117;28;20197;-50
2022/05/04 09:52:41;;;;;;;17.97;16.57;;;;;;;19.73;100.00;100328.69;5100616;28;20208;-50
2022/05/04 09:55:14;;;;;;;19.30;17.80;;;;;;;19.71;100.00;100333.16;5097332;28;20664;-50
2022/05/04 09:57:42;;;;;;;19.73;18.23;;;;;;;19.72;100.00;100335.75;5104071;28;20176;-50
2022/05/04 10:00:08;;;;;;;18.83;17.33;;;;;;;19.74;100.00;100330.41;5100479;28;20588;-50
2022/05/04 10:02:33;;;;;;;19.60;18.07;;;;;;;19.74;100.00;100319.91;5097112;28;20193;-50
2022/05/04 10:05:00;;;;;;;20.57;18.93;;;;;;;19.71;100.00;100320.91;5094786;28;20257;-51
2022/05/04 10:07:26;;;;;;;19.20;17.70;;;;;;;19.72;100.00;100319.97;5098689;28;20189;-50
2022/05/04 10:09:52;;;;;;;19.60;18.03;;;;;;;19.68;100.00;100315.78;5102104;28;20215;-50
2022/05/04 10:12:19;;;;;;;18.13;16.63;;;;;;;19.65;100.00;100322.03;5108423;27;20231;-50
2022/05/04 10:14:45;;;;;;;18.33;16.83;;;;;;;19.65;100.00;100316.78;5103172;27;20281;-51
2022/05/04 10:17:17;;;;;;;17.93;16.47;;;;;;;19.64;100.00;100309.84;5102660;27;20192;-52
2022/05/04 10:19:49;;;;;;;17.97;16.53;;;;;;;19.69;100.00;100304.38;5093811;27;20715;-59
2022/05/04 10:22:19;;;;;;;18.13;16.73;;;;;;;19.75;100.00;100303.22;5092479;28;20212;-50
2022/05/04 10:24:45;;;;;;;17.83;16.40;;;;;;;19.81;100.00;100302.94;5094732;28;20221;-51
2022/05/04 10:27:18;;;;;;;16.80;15.40;;;;;;;19.86;100.00;100303.56;5096377;28;20195;-50
2022/05/04 10:32:33;;;;;;;16.50;15.27;;;;;;;20.09;100.00;100294.59;5089149;28;20735;-51
2022/05/04 10:35:32;;;;;;;15.60;14.43;;;;;;;20.25;100.00;100293.84;5099050;28;20712;-51
2022/05/04 10:37:57;;;;;;;15.50;14.30;;;;;;;20.49;100.00;100285.69;5093947;28;20655;-50
2022/05/04 10:40:40;;;;;;;16.27;15.07;;;;;;;20.74;100.00;100281.78;5096255;28;20204;-50
2022/05/04 10:43:11;;;;;;;16.83;15.53;;;;;;;20.90;100.00;100284.50;5100702;28;20182;-52
2022/05/04 10:45:39;;;;;;;16.20;15.00;;;;;;;21.13;100.00;100286.78;5098998;28;20211;-50
2022/05/04 10:48:16;;;;;;;17.60;16.30;;;;;;;21.29;100.00;100273.63;5102025;28;20697;-51
2022/05/04 10:51:03;;;;;;;19.93;18.43;;;;;;;21.44;100.00;100281.63;5094653;28;20189;-51
2022/05/04 10:53:29;;;;;;;17.30;16.00;;;;;;;21.56;100.00;100274.84;5094066;28;20215;-51
2022/05/04 10:56:01;;;;;;;16.73;15.43;;;;;;;21.56;100.00;100269.59;5096378;28;20204;-51
2022/05/04 10:58:44;;;;;;;18.13;16.73;;;;;;;21.47;100.00;100261.28;5098340;28;20287;-51
2022/05/04 11:01:14;;;;;;;18.70;17.30;;;;;;;21.33;100.00;100255.88;5096527;28;20218;-51
2022/05/04 11:04:13;;;;;;;18.50;17.10;;;;;;;21.02;100.00;100266.28;5096568;28;20698;-51
2022/05/04 11:06:54;;;;;;;16.43;15.20;;;;;;;20.80;100.00;100255.19;5079367;28;20193;-52
2022/05/04 11:09:24;;;;;;;16.50;15.37;;;;;;;20.64;100.00;100256.00;5098373;28;20188;-51
2022/05/04 11:11:52;;;;;;;15.63;14.43;;;;;;;20.64;100.00;100248.09;5099052;28;20183;-51
2022/05/04 11:14:22;;;;;;;16.30;15.00;;;;;;;20.62;100.00;100254.34;5095411;28;20305;-51
2022/05/04 11:16:49;;;;;;;19.07;17.67;;;;;;;20.62;100.00;100244.69;5104798;28;20223;-51
2022/05/04 11:19:15;;;;;;;19.67;18.17;;;;;;;20.62;100.00;100243.81;5096816;28;20188;-51
2022/05/04 11:21:41;;;;;;;18.57;17.07;;;;;;;20.55;100.00;100244.16;5099810;28;20188;-52
2022/05/04 11:24:09;;;;;;;19.70;18.20;;;;;;;20.49;100.00;100236.56;5094339;28;20257;-51
2022/05/04 11:26:43;;;;;;;18.30;16.83;;;;;;;20.51;100.00;100232.09;5094313;28;20185;-52
2022/05/04 11:29:11;;;;;;;19.57;18.07;;;;;;;20.45;100.00;100235.03;5096487;28;20279;-54
2022/05/04 11:31:37;;;;;;;17.47;16.10;;;;;;;20.50;100.00;100230.41;5099149;28;20190;-51
2022/05/04 11:34:03;;;;;;;17.10;15.87;;;;;;;20.51;100.00;100228.59;5093344;28;20583;-51
2022/05/04 11:36:28;;;;;;;18.53;17.13;;;;;;;20.46;100.00;100233.28;5102113;28;20195;-52
2022/05/04 11:38:54;;;;;;;18.40;17.03;;;;;;;20.49;100.00;100215.56;5101402;28;20185;-51
2022/05/04 11:41:20;;;;;;;16.90;15.60;;;;;;;20.52;100.00;100222.41;5102366;28;20245;-51
2022/05/04 11:43:50;;;;;;;16.70;15.50;;;;;;;20.51;100.00;100220.72;5101306;28;20267;-50
2022/05/04 11:46:16;;;;;;;18.00;16.60;;;;;;;20.56;100.00;100210.81;5097431;28;20204;-50
2022/05/04 11:48:47;;;;;;;15.80;14.63;;;;;;;20.39;100.00;100219.59;5101216;28;20237;-50
2022/05/04 11:51:15;;;;;;;17.27;16.07;;;;;;;20.48;100.00;100208.59;5099472;28;20197;-52
2022/05/04 11:53:41;;;;;;;16.40;15.20;;;;;;;20.58;100.00;100206.34;5101695;28;20208;-52
2022/05/04 11:56:08;;;;;;;15.33;14.23;;;;;;;20.62;100.00;100212.28;5098985;28;20204;-51